createdAt,value
2023-01-02T00:00:19.130Z,1.00
2023-01-02T00:02:50.208Z,1.08
2023-01-02T00:05:19.095Z,1.10
2023-01-02T00:07:49.556Z,1.00
2023-01-02T00:10:19.340Z,0.98
2023-01-02T00:12:48.386Z,1.02
2023-01-02T00:15:18.021Z,0.90
2023-01-02T00:17:46.314Z,0.90
2023-01-02T00:20:14.580Z,1.20
2023-01-02T00:22:43.168Z,1.40
2023-01-02T00:25:14.317Z,1.33
2023-01-02T00:27:43.275Z,1.52
2023-01-02T00:30:13.314Z,1.10
2023-01-02T00:32:42.342Z,1.20
2023-01-02T00:35:11.529Z,1.10
2023-01-02T00:37:39.929Z,1.05
2023-01-02T00:40:13.947Z,1.20
2023-01-02T00:42:44.388Z,1.30
2023-01-02T00:45:13.024Z,1.30
2023-01-02T00:47:41.554Z,1.08
2023-01-02T00:50:10.381Z,0.98
2023-01-02T00:52:39.112Z,1.00
2023-01-02T00:55:07.952Z,1.10
2023-01-02T00:57:36.656Z,1.10
2023-01-02T01:00:08.077Z,1.20
2023-01-02T01:02:36.732Z,1.00
2023-01-02T01:05:05.920Z,1.00
2023-01-02T01:07:34.540Z,1.10
2023-01-02T01:10:03.040Z,1.10
2023-01-02T01:12:32.338Z,0.95
2023-01-02T01:15:00.714Z,1.17
2023-01-02T01:17:30.427Z,1.10
2023-01-02T01:19:58.815Z,1.20
2023-01-02T01:22:27.026Z,1.20
2023-01-02T01:24:55.450Z,1.13
2023-01-02T01:27:24.120Z,1.40
2023-01-02T01:29:52.448Z,1.40
2023-01-02T01:32:20.771Z,1.13
2023-01-02T01:34:50.638Z,1.10
2023-01-02T01:37:18.967Z,1.00
2023-01-02T01:39:47.182Z,0.85
2023-01-02T01:42:15.868Z,0.93
2023-01-02T01:44:47.585Z,1.30
2023-01-02T01:50:05.127Z,0.98
2023-01-02T01:52:37.838Z,1.00
2023-01-02T01:55:12.150Z,0.98
2023-01-02T01:57:45.831Z,0.80
2023-01-02T02:00:15.003Z,1.10
2023-01-02T02:02:47.084Z,1.05
2023-01-02T02:05:21.296Z,0.95
2023-01-02T02:08:00.915Z,1.10
2023-01-02T02:10:29.500Z,0.90
2023-01-02T02:12:57.984Z,0.98
2023-01-02T02:15:32.515Z,0.93
2023-01-02T02:18:09.449Z,1.00
2023-01-02T02:20:47.993Z,0.98
2023-01-02T02:23:51.758Z,1.15
2023-01-02T02:27:00.171Z,0.73
2023-01-02T02:30:09.882Z,0.80
2023-01-02T02:32:55.789Z,0.85
2023-01-02T02:35:33.143Z,0.90
2023-01-02T02:38:08.523Z,0.90
2023-01-02T02:40:50.212Z,0.85
2023-01-02T02:43:27.171Z,1.27
2023-01-02T02:46:06.543Z,1.48
2023-01-02T02:48:46.844Z,1.15
2023-01-02T02:51:20.700Z,0.82
2023-01-02T02:53:56.986Z,0.82
2023-01-02T02:56:29.190Z,0.80
2023-01-02T02:58:58.287Z,0.73
2023-01-02T03:01:31.902Z,0.90
2023-01-02T03:04:00.542Z,0.52
2023-01-02T03:06:46.938Z,0.75
2023-01-02T03:09:24.783Z,0.73
2023-01-02T03:12:01.933Z,0.70
2023-01-02T03:14:35.231Z,0.70
2023-01-02T03:17:09.249Z,0.73
2023-01-02T03:19:43.442Z,0.90
2023-01-02T03:22:17.150Z,1.02
2023-01-02T03:24:47.304Z,1.30
2023-01-02T03:27:19.883Z,2.00
2023-01-02T03:29:51.605Z,1.92
2023-01-02T03:34:54.037Z,2.22
2023-01-02T03:37:26.275Z,2.67
2023-01-02T03:39:58.634Z,2.55
2023-01-02T03:42:30.395Z,2.67
2023-01-02T03:47:37.566Z,2.58
2023-01-02T03:50:12.082Z,2.70
2023-01-02T03:52:40.367Z,2.13
2023-01-02T03:55:09.461Z,1.58
2023-01-02T03:57:56.974Z,1.23
2023-01-02T04:00:34.294Z,1.15
2023-01-02T04:03:09.214Z,1.20
2023-01-02T04:05:43.097Z,1.13
2023-01-02T04:08:18.507Z,1.17
2023-01-02T04:10:53.165Z,1.38
2023-01-02T04:13:31.434Z,1.05
2023-01-02T04:16:01.507Z,1.08
2023-01-02T04:18:34.712Z,1.23
2023-01-02T04:21:07.759Z,1.10
2023-01-02T04:23:40.351Z,1.02
2023-01-02T04:26:13.956Z,1.02
2023-01-02T04:28:42.604Z,1.50
2023-01-02T04:31:14.752Z,1.38
2023-01-02T04:33:48.864Z,1.27
2023-01-02T04:36:18.084Z,1.23
2023-01-02T04:38:47.289Z,1.02
2023-01-02T04:41:18.869Z,1.15
2023-01-02T04:43:47.277Z,1.67
2023-01-02T04:46:15.613Z,1.48
2023-01-02T04:48:46.348Z,1.65
2023-01-02T04:51:15.209Z,1.63
2023-01-02T04:53:43.723Z,1.40
2023-01-02T04:56:12.273Z,1.30
2023-01-02T04:58:40.586Z,1.10
2023-01-02T05:01:10.534Z,1.40
2023-01-02T05:03:41.772Z,1.35
2023-01-02T05:06:11.829Z,1.40
2023-01-02T05:08:40.922Z,0.90
2023-01-02T05:11:12.587Z,0.93
2023-01-02T05:13:41.145Z,0.90
2023-01-02T05:16:11.002Z,0.73
2023-01-02T05:18:39.240Z,0.80
2023-01-02T05:21:30.788Z,0.70
2023-01-02T05:24:01.014Z,0.60
2023-01-02T05:26:30.830Z,0.60
2023-01-02T05:28:59.220Z,0.50
2023-01-02T05:31:28.103Z,0.73
2023-01-02T05:33:57.863Z,0.90
2023-01-02T05:36:27.694Z,0.90
2023-01-02T05:38:56.546Z,1.30
2023-01-02T05:41:26.527Z,1.05
2023-01-02T05:43:56.493Z,2.10
2023-01-02T05:46:24.727Z,0.95
2023-01-02T05:48:52.964Z,1.35
2023-01-02T05:51:21.342Z,1.05
2023-01-02T05:53:50.907Z,1.15
2023-01-02T05:56:21.600Z,2.13
2023-01-02T05:58:51.836Z,2.15
2023-01-02T06:01:21.765Z,2.20
2023-01-02T06:03:51.792Z,3.03
2023-01-02T06:06:25.228Z,3.88
2023-01-02T06:08:53.920Z,3.63
2023-01-02T06:11:23.615Z,3.75
2023-01-02T06:13:54.940Z,3.67
2023-01-02T06:16:24.362Z,4.00
2023-01-02T06:18:53.234Z,3.97
2023-01-02T06:21:22.904Z,3.85
2023-01-02T06:23:56.648Z,4.03
2023-01-02T06:26:31.156Z,4.57
2023-01-02T06:29:05.600Z,4.53
2023-01-02T06:31:34.214Z,4.68
2023-01-02T06:34:04.533Z,3.47
2023-01-02T06:36:34.837Z,2.10
2023-01-02T06:39:03.579Z,1.15
2023-01-02T06:41:32.244Z,1.25
2023-01-02T06:44:00.700Z,1.27
2023-01-02T06:46:30.523Z,1.02
2023-01-02T06:48:58.795Z,1.40
2023-01-02T06:51:27.070Z,1.13
2023-01-02T06:53:55.733Z,1.60
2023-01-02T06:56:24.238Z,1.95
2023-01-02T06:58:52.576Z,1.70
2023-01-02T07:01:22.574Z,2.15
2023-01-02T07:03:52.703Z,2.25
2023-01-02T07:06:22.239Z,1.73
2023-01-02T07:08:50.717Z,1.80
2023-01-02T07:11:21.684Z,1.98
2023-01-02T07:13:51.542Z,2.38
2023-01-02T07:16:21.775Z,2.33
2023-01-02T07:18:52.524Z,1.60
2023-01-02T07:21:21.568Z,1.17
2023-01-02T07:23:49.829Z,0.90
2023-01-02T07:26:18.828Z,1.00
2023-01-02T07:28:47.922Z,1.08
2023-01-02T07:31:18.692Z,1.08
2023-01-02T07:33:47.586Z,1.15
2023-01-02T07:36:19.416Z,1.27
2023-01-02T07:38:52.006Z,1.20
2023-01-02T07:41:22.316Z,1.50
2023-01-02T07:43:51.461Z,1.40
2023-01-02T07:46:21.655Z,1.52
2023-01-02T07:48:50.553Z,1.65
2023-01-02T07:51:26.586Z,3.78
2023-01-02T07:53:55.492Z,3.53
2023-01-02T07:56:23.720Z,2.42
2023-01-02T07:58:52.582Z,2.25
2023-01-02T08:01:21.082Z,2.00
2023-01-02T08:03:49.512Z,2.63
2023-01-02T08:06:20.368Z,2.65
2023-01-02T08:08:49.028Z,3.28
2023-01-02T08:11:19.647Z,4.82
2023-01-02T08:13:48.098Z,3.10
2023-01-02T08:16:18.157Z,3.17
2023-01-02T08:18:47.386Z,3.80
2023-01-02T08:21:16.136Z,3.50
2023-01-02T08:23:45.820Z,2.92
2023-01-02T08:26:14.065Z,2.53
2023-01-02T08:28:42.954Z,2.38
2023-01-02T08:31:12.302Z,3.25
2023-01-02T08:33:41.037Z,2.42
2023-01-02T08:36:10.716Z,2.58
2023-01-02T08:38:38.953Z,2.80
2023-01-02T08:41:09.154Z,3.15
2023-01-02T08:43:38.165Z,3.30
2023-01-02T08:46:07.464Z,3.25
2023-01-02T08:48:35.926Z,3.17
2023-01-02T08:51:04.810Z,3.13
2023-01-02T08:53:33.787Z,3.78
2023-01-02T08:56:37.897Z,3.65
2023-01-02T08:59:07.453Z,3.85
2023-01-02T09:01:36.646Z,3.92
2023-01-02T09:04:11.840Z,4.07
2023-01-02T09:06:41.567Z,4.00
2023-01-02T09:09:12.362Z,6.22
2023-01-02T09:11:46.317Z,8.82
2023-01-02T09:14:14.633Z,3.53
2023-01-02T09:16:43.004Z,2.00
2023-01-02T09:19:12.258Z,2.40
2023-01-02T09:21:40.884Z,3.83
2023-01-02T09:24:10.320Z,3.20
2023-01-02T09:26:41.804Z,3.33
2023-01-02T09:31:40.701Z,2.78
2023-01-02T09:34:09.097Z,3.47
2023-01-02T09:36:37.585Z,3.38
2023-01-02T09:39:07.100Z,2.85
2023-01-02T09:41:37.712Z,3.45
2023-01-02T09:44:11.926Z,4.32
2023-01-02T09:46:49.176Z,4.03
2023-01-02T09:49:19.737Z,4.60
2023-01-02T09:51:48.218Z,4.75
2023-01-02T09:54:23.124Z,4.95
2023-01-02T09:56:59.276Z,5.88
2023-01-02T09:59:33.854Z,4.63
2023-01-02T10:02:17.363Z,4.57
2023-01-02T10:05:03.518Z,3.92
2023-01-02T10:07:37.802Z,3.42
2023-01-02T10:10:11.726Z,4.03
2023-01-02T10:12:48.914Z,4.05
2023-01-02T10:15:21.455Z,5.50
2023-01-02T10:17:57.701Z,5.22
2023-01-02T10:20:30.702Z,4.90
2023-01-02T10:23:02.545Z,4.05
2023-01-02T10:25:35.009Z,3.60
2023-01-02T10:28:14.988Z,4.10
2023-01-02T10:30:49.828Z,3.67
2023-01-02T10:33:27.547Z,4.00
2023-01-02T10:36:01.227Z,4.50
2023-01-02T10:38:35.769Z,5.32
2023-01-02T10:41:04.651Z,5.07
2023-01-02T10:43:35.381Z,4.13
2023-01-02T10:46:04.644Z,3.47
2023-01-02T10:48:37.387Z,3.30
2023-01-02T10:51:10.969Z,2.88
2023-01-02T10:53:39.593Z,3.38
2023-01-02T10:56:15.921Z,3.80
2023-01-02T10:58:47.577Z,3.80
2023-01-02T11:04:11.916Z,3.38
2023-01-02T11:06:52.809Z,3.42
2023-01-02T11:09:23.757Z,3.15
2023-01-02T11:11:53.847Z,3.65
2023-01-02T11:14:30.201Z,3.88
2023-01-02T11:17:05.400Z,3.90
2023-01-02T11:19:41.298Z,4.40
2023-01-02T11:22:10.536Z,4.13
2023-01-02T11:25:00.372Z,4.13
2023-01-02T11:27:32.150Z,3.80
2023-01-02T11:30:01.156Z,3.55
2023-01-02T11:32:38.636Z,3.17
2023-01-02T11:35:31.898Z,3.63
2023-01-02T11:38:03.385Z,2.90
2023-01-02T11:40:34.807Z,2.97
2023-01-02T11:43:31.187Z,3.13
2023-01-02T11:45:59.420Z,3.38
2023-01-02T11:48:28.698Z,2.97
2023-01-02T11:50:58.817Z,3.33
2023-01-02T11:53:31.223Z,4.07
2023-01-02T11:56:06.867Z,3.00
2023-01-02T11:58:40.621Z,3.30
2023-01-02T12:01:19.164Z,3.50
2023-01-02T12:03:47.576Z,3.33
2023-01-02T12:06:22.978Z,3.00
2023-01-02T12:09:07.036Z,3.30
2023-01-02T12:11:47.225Z,4.13
2023-01-02T12:14:18.038Z,4.07
2023-01-02T12:16:53.486Z,4.90
2023-01-02T12:20:05.064Z,4.90
2023-01-02T12:23:05.812Z,4.47
2023-01-02T12:25:43.139Z,3.75
2023-01-02T12:28:29.291Z,4.40
2023-01-02T12:31:14.975Z,4.13
2023-01-02T12:33:49.236Z,4.10
2023-01-02T12:36:41.220Z,4.47
2023-01-02T12:39:28.339Z,4.30
2023-01-02T12:42:07.631Z,4.45
2023-01-02T12:44:50.695Z,3.95
2023-01-02T12:47:47.708Z,3.97
2023-01-02T12:50:29.054Z,4.10
2023-01-02T12:53:09.586Z,4.57
2023-01-02T12:55:52.680Z,4.78
2023-01-02T12:58:44.435Z,4.60
2023-01-02T13:03:58.965Z,4.28
2023-01-02T13:06:44.998Z,4.43
2023-01-02T13:09:22.992Z,4.78
2023-01-02T13:12:00.817Z,5.03
2023-01-02T13:14:35.730Z,4.82
2023-01-02T13:17:19.983Z,4.35
2023-01-02T13:19:54.063Z,4.40
2023-01-02T13:22:29.386Z,4.97
2023-01-02T13:24:59.059Z,4.43
2023-01-02T13:27:29.168Z,4.57
2023-01-02T13:29:57.512Z,4.50
2023-01-02T13:32:31.242Z,4.85
2023-01-02T13:35:02.724Z,4.60
2023-01-02T13:37:32.064Z,4.88
2023-01-02T13:40:03.078Z,5.70
2023-01-02T13:42:52.996Z,5.45
2023-01-02T13:45:25.568Z,5.40
2023-01-02T13:47:56.875Z,4.85
2023-01-02T13:50:29.999Z,4.90
2023-01-02T13:53:05.652Z,4.75
2023-01-02T13:55:35.607Z,4.50
2023-01-02T13:58:41.537Z,4.75
2023-01-02T14:01:49.487Z,5.15
2023-01-02T14:04:41.154Z,4.72
2023-01-02T14:07:47.803Z,4.40
2023-01-02T14:10:41.530Z,4.55
2023-01-02T14:13:22.706Z,4.43
2023-01-02T14:16:23.704Z,4.70
2023-01-02T14:19:16.980Z,4.13
2023-01-02T14:21:49.039Z,4.50
2023-01-02T14:24:30.271Z,4.68
2023-01-02T14:27:01.943Z,4.95
2023-01-02T14:29:31.738Z,4.22
2023-01-02T14:32:03.959Z,4.75
2023-01-02T14:34:35.760Z,4.72
2023-01-02T14:37:04.543Z,4.95
2023-01-02T14:39:37.063Z,3.85
2023-01-02T14:42:43.423Z,3.92
2023-01-02T14:45:18.897Z,3.78
2023-01-02T14:47:51.981Z,4.40
2023-01-02T14:50:25.687Z,4.32
2023-01-02T14:53:03.794Z,5.60
2023-01-02T14:55:41.380Z,6.10
2023-01-02T14:58:19.349Z,6.88
2023-01-02T15:00:49.173Z,6.68
2023-01-02T15:03:28.706Z,6.72
2023-01-02T15:06:03.390Z,7.13
2023-01-02T15:08:38.617Z,6.80
2023-01-02T15:11:35.902Z,7.57
2023-01-02T15:14:06.316Z,7.60
2023-01-02T15:16:42.538Z,7.30
2023-01-02T15:19:21.899Z,7.00
2023-01-02T15:21:52.811Z,6.78
2023-01-02T15:24:23.635Z,6.63
2023-01-02T15:26:52.339Z,6.10
2023-01-02T15:29:23.431Z,6.05
2023-01-02T15:31:56.885Z,6.60
2023-01-02T15:34:30.670Z,6.78
2023-01-02T15:37:04.798Z,6.60
2023-01-02T15:39:37.879Z,6.63
2023-01-02T15:42:27.050Z,6.05
2023-01-02T15:45:13.918Z,6.20
2023-01-02T15:47:46.661Z,6.70
2023-01-02T15:50:19.209Z,16.75
2023-01-02T15:52:51.496Z,13.93
2023-01-02T15:55:21.346Z,11.98
2023-01-02T15:57:52.081Z,8.80
2023-01-02T16:00:37.809Z,5.30
2023-01-02T16:03:06.768Z,7.15
2023-01-02T16:05:48.267Z,6.90
2023-01-02T16:08:25.016Z,5.80
2023-01-02T16:11:01.858Z,5.50
2023-01-02T16:13:50.604Z,5.13
2023-01-02T16:16:20.447Z,4.43
2023-01-02T16:18:53.278Z,3.00
2023-01-02T16:21:22.658Z,3.20
2023-01-02T16:23:55.621Z,4.15
2023-01-02T16:26:29.674Z,4.22
2023-01-02T16:28:58.056Z,3.35
2023-01-02T16:31:26.497Z,3.25
2023-01-02T16:34:13.178Z,2.40
2023-01-02T16:36:41.437Z,3.67
2023-01-02T16:39:41.710Z,6.95
2023-01-02T16:42:27.146Z,4.75
2023-01-02T16:44:56.677Z,4.40
2023-01-02T16:47:26.537Z,4.30
2023-01-02T16:49:54.945Z,4.40
2023-01-02T16:52:23.549Z,4.85
2023-01-02T16:54:54.583Z,4.53
2023-01-02T16:57:24.376Z,4.07
2023-01-02T16:59:52.737Z,4.35
2023-01-02T17:02:21.646Z,5.05
2023-01-02T17:04:49.934Z,4.65
2023-01-02T17:07:22.208Z,4.75
2023-01-02T17:09:53.134Z,4.00
2023-01-02T17:12:21.741Z,3.70
2023-01-02T17:14:50.406Z,4.97
2023-01-02T17:17:19.148Z,4.95
2023-01-02T17:19:47.565Z,4.20
2023-01-02T17:22:15.896Z,4.00
2023-01-02T17:24:44.332Z,4.22
2023-01-02T17:27:14.271Z,4.97
2023-01-02T17:29:43.107Z,4.20
2023-01-02T17:32:11.542Z,4.25
2023-01-02T17:34:39.879Z,3.80
2023-01-02T17:37:08.230Z,4.10
2023-01-02T17:39:36.525Z,5.75
2023-01-02T17:42:04.937Z,6.13
2023-01-02T17:44:34.718Z,6.35
2023-01-02T17:47:38.574Z,4.82
2023-01-02T17:49:51.678Z,4.95
2023-01-02T17:52:22.082Z,4.88
2023-01-02T17:54:56.355Z,4.82
2023-01-02T17:57:25.754Z,5.50
2023-01-02T17:59:55.775Z,5.68
2023-01-02T18:02:24.552Z,7.40
2023-01-02T18:04:55.479Z,7.40
2023-01-02T18:07:24.119Z,7.75
2023-01-02T18:10:08.842Z,7.00
2023-01-02T18:12:38.938Z,6.60
2023-01-02T18:15:15.779Z,6.10
2023-01-02T18:17:44.372Z,4.95
2023-01-02T18:20:14.862Z,5.20
2023-01-02T18:22:49.055Z,5.28
2023-01-02T18:25:20.887Z,5.70
2023-01-02T18:27:50.077Z,4.85
2023-01-02T18:30:23.022Z,4.72
2023-01-02T18:32:57.880Z,4.78
2023-01-02T18:35:56.259Z,4.40
2023-01-02T18:38:25.446Z,5.00
2023-01-02T18:40:54.502Z,4.82
2023-01-02T18:43:29.241Z,12.48
2023-01-02T18:46:02.073Z,12.20
2023-01-02T18:48:32.926Z,11.48
2023-01-02T18:51:02.953Z,11.18
2023-01-02T18:53:35.997Z,10.93
2023-01-02T18:56:14.462Z,9.32
2023-01-02T18:58:44.670Z,7.47
2023-01-02T19:01:31.936Z,5.32
2023-01-02T19:04:26.247Z,7.07
2023-01-02T19:06:57.099Z,7.63
2023-01-02T19:09:31.771Z,7.53
2023-01-02T19:12:30.066Z,6.40
2023-01-02T19:14:58.331Z,4.80
2023-01-02T19:17:32.236Z,4.18
2023-01-02T19:20:01.608Z,4.40
2023-01-02T19:22:33.204Z,4.53
2023-01-02T19:27:38.023Z,4.55
2023-01-02T19:30:20.823Z,3.90
2023-01-02T19:32:50.707Z,3.72
2023-01-02T19:35:49.209Z,3.60
2023-01-02T19:38:26.063Z,3.80
2023-01-02T19:40:54.636Z,3.25
2023-01-02T19:43:23.952Z,3.40
2023-01-02T19:45:53.126Z,2.78
2023-01-02T19:48:23.842Z,3.17
2023-01-02T19:50:52.283Z,2.97
2023-01-02T19:53:20.698Z,3.08
2023-01-02T19:55:49.234Z,3.05
2023-01-02T19:58:17.762Z,3.90
2023-01-02T20:00:46.076Z,4.35
2023-01-02T20:03:14.567Z,4.53
2023-01-02T20:05:44.565Z,4.75
2023-01-02T20:08:13.225Z,4.57
2023-01-02T20:10:41.526Z,4.28
2023-01-02T20:13:10.086Z,3.60
2023-01-02T20:15:38.519Z,3.10
2023-01-02T20:18:08.906Z,4.10
2023-01-02T20:20:37.736Z,3.42
2023-01-02T20:23:08.330Z,3.40
2023-01-02T20:25:37.104Z,3.15
2023-01-02T20:28:06.882Z,3.00
2023-01-02T20:30:35.681Z,2.92
2023-01-02T20:33:04.402Z,3.22
2023-01-02T20:35:33.256Z,4.40
2023-01-02T20:38:02.680Z,4.18
2023-01-02T20:40:34.333Z,4.20
2023-01-02T20:45:31.216Z,4.47
2023-01-02T20:47:59.733Z,3.90
2023-01-02T20:50:28.449Z,3.72
2023-01-02T20:52:57.295Z,3.72
2023-01-02T20:55:26.939Z,3.67
2023-01-02T20:57:57.407Z,3.22
2023-01-02T21:00:25.995Z,3.30
2023-01-02T21:02:54.355Z,3.38
2023-01-02T21:05:23.317Z,4.47
2023-01-02T21:07:51.758Z,4.28
2023-01-02T21:10:20.360Z,4.80
2023-01-02T21:13:06.514Z,4.35
2023-01-02T21:15:52.344Z,4.07
2023-01-02T21:18:22.700Z,3.38
2023-01-02T21:20:56.193Z,3.65
2023-01-02T21:23:26.502Z,3.40
2023-01-02T21:25:55.922Z,3.47
2023-01-02T21:28:25.024Z,3.90
2023-01-02T21:30:54.997Z,4.05
2023-01-02T21:33:25.625Z,3.90
2023-01-02T21:35:57.085Z,3.75
2023-01-02T21:38:26.599Z,3.60
2023-01-02T21:40:55.858Z,3.80
2023-01-02T21:43:24.718Z,3.60
2023-01-02T21:45:54.986Z,3.30
2023-01-02T21:48:23.978Z,3.83
2023-01-02T21:50:52.662Z,3.92
2023-01-02T21:53:20.890Z,3.83
2023-01-02T21:55:49.172Z,4.03
2023-01-02T21:58:17.870Z,3.50
2023-01-02T22:00:46.187Z,3.50
2023-01-02T22:03:16.741Z,3.58
2023-01-02T22:05:45.484Z,4.33
2023-01-02T22:08:16.338Z,5.40
2023-01-02T22:10:46.465Z,4.28
2023-01-02T22:13:14.871Z,7.28
2023-01-02T22:15:43.359Z,6.07
2023-01-02T22:18:11.774Z,6.35
2023-01-02T22:20:43.099Z,5.80
2023-01-02T22:23:11.440Z,4.07
2023-01-02T22:25:39.752Z,3.70
2023-01-02T22:28:08.357Z,2.90
2023-01-02T22:30:38.002Z,2.83
2023-01-02T22:33:06.405Z,2.60
2023-01-02T22:35:35.574Z,2.22
2023-01-02T22:38:06.092Z,2.55
2023-01-02T22:40:35.414Z,2.40
2023-01-02T22:43:05.720Z,2.15
2023-01-02T22:45:38.580Z,2.00
2023-01-02T22:48:15.748Z,2.67
2023-01-02T22:50:45.946Z,3.17
2023-01-02T22:53:21.833Z,2.95
2023-01-02T22:55:50.626Z,2.80
2023-01-02T22:58:20.381Z,2.88
2023-01-02T23:00:50.543Z,3.00
2023-01-02T23:03:18.804Z,2.42
2023-01-02T23:05:47.544Z,2.40
2023-01-02T23:08:16.373Z,2.60
2023-01-02T23:10:47.493Z,2.50
2023-01-02T23:13:16.832Z,2.50
2023-01-02T23:16:00.358Z,2.60
2023-01-02T23:18:49.164Z,2.45
2023-01-02T23:21:24.317Z,2.75
2023-01-02T23:23:53.934Z,2.53
2023-01-02T23:26:26.713Z,2.25
2023-01-02T23:29:06.508Z,2.35
2023-01-02T23:31:36.609Z,2.40
2023-01-02T23:34:05.340Z,2.65
2023-01-02T23:36:33.981Z,1.95
2023-01-02T23:39:02.535Z,2.20
2023-01-02T23:41:32.639Z,1.80
2023-01-02T23:44:01.140Z,1.60
2023-01-02T23:46:29.631Z,1.70
2023-01-02T23:48:58.504Z,1.80
2023-01-02T23:51:27.116Z,1.70
2023-01-02T23:53:55.621Z,2.08
2023-01-02T23:56:25.761Z,1.73
2023-01-02T23:58:58.577Z,1.60
